createdAt,value
2022-08-10T00:00:39.611Z,13.77
2022-08-10T00:05:43.734Z,13.76
2022-08-10T00:10:56.957Z,13.73
2022-08-10T00:15:58.566Z,13.55
2022-08-10T00:21:00.141Z,13.58
2022-08-10T00:26:02.385Z,13.51
2022-08-10T00:31:03.960Z,13.44
2022-08-10T00:36:05.866Z,13.46
2022-08-10T00:41:07.448Z,13.41
2022-08-10T00:46:09.193Z,13.37
2022-08-10T00:51:11.175Z,13.29
2022-08-10T00:57:14.983Z,13.26
2022-08-10T01:02:10.799Z,13.10
2022-08-10T01:07:20.416Z,13.01
2022-08-10T01:12:52.459Z,13.02
2022-08-10T01:18:33.678Z,12.98
2022-08-10T01:24:08.831Z,12.90
2022-08-10T01:29:27.640Z,12.79
2022-08-10T01:34:37.507Z,12.70
2022-08-10T01:39:47.040Z,12.68
2022-08-10T01:45:02.205Z,12.65
2022-08-10T01:50:13.583Z,12.57
2022-08-10T01:55:16.924Z,12.57
2022-08-10T02:00:19.635Z,12.57
2022-08-10T02:05:29.498Z,12.53
2022-08-10T02:10:33.317Z,12.50
2022-08-10T02:15:37.122Z,12.47
2022-08-10T02:20:44.265Z,12.44
2022-08-10T02:25:46.836Z,12.39
2022-08-10T02:30:50.192Z,12.31
2022-08-10T02:35:55.306Z,12.15
2022-08-10T02:45:03.660Z,12.14
2022-08-10T02:46:40.036Z,12.11
2022-08-10T02:52:07.614Z,12.12
2022-08-10T02:57:27.171Z,11.99
2022-08-10T03:02:40.811Z,11.91
2022-08-10T03:07:51.083Z,11.90
2022-08-10T03:12:57.928Z,11.78
2022-08-10T03:18:00.775Z,11.78
2022-08-10T03:23:05.642Z,11.76
2022-08-10T03:28:08.245Z,11.72
2022-08-10T03:33:11.545Z,11.74
2022-08-10T03:38:13.300Z,11.61
2022-08-10T03:43:21.459Z,11.63
2022-08-10T03:48:32.077Z,11.61
2022-08-10T03:54:06.192Z,11.57
2022-08-10T03:59:11.466Z,11.58
2022-08-10T04:04:15.460Z,11.53
2022-08-10T04:09:19.769Z,11.60
2022-08-10T04:14:38.786Z,11.62
2022-08-10T04:19:49.124Z,11.64
2022-08-10T04:24:57.084Z,11.60
2022-08-10T04:29:58.765Z,11.68
2022-08-10T04:35:03.995Z,11.67
2022-08-10T04:40:06.217Z,11.73
2022-08-10T04:45:49.283Z,11.82
2022-08-10T04:50:49.472Z,11.90
2022-08-10T04:55:51.018Z,11.98
2022-08-10T05:00:52.640Z,12.06
2022-08-10T05:05:54.467Z,12.11
2022-08-10T05:10:58.549Z,12.27
2022-08-10T05:16:00.416Z,12.40
2022-08-10T05:21:01.979Z,12.55
2022-08-10T05:26:03.741Z,12.95
2022-08-10T05:31:05.515Z,14.04
2022-08-10T05:36:08.543Z,16.05
2022-08-10T05:41:10.174Z,16.97
2022-08-10T05:46:17.955Z,16.22
2022-08-10T05:51:23.279Z,15.64
2022-08-10T05:56:25.022Z,15.29
2022-08-10T06:01:28.431Z,15.02
2022-08-10T06:06:34.262Z,15.04
2022-08-10T06:12:23.819Z,15.11
2022-08-10T06:17:01.107Z,15.44
2022-08-10T06:22:03.358Z,15.60
2022-08-10T06:27:05.193Z,15.94
2022-08-10T06:32:09.787Z,16.06
2022-08-10T06:37:15.615Z,16.08
2022-08-10T06:42:32.410Z,16.34
2022-08-10T06:47:59.610Z,16.66
2022-08-10T06:53:02.880Z,16.86
2022-08-10T06:58:05.940Z,17.22
2022-08-10T07:03:11.409Z,17.69
2022-08-10T07:08:14.465Z,19.84
2022-08-10T07:14:15.361Z,20.83
2022-08-10T07:18:41.426Z,19.40
2022-08-10T07:23:59.770Z,18.72
2022-08-10T07:29:04.925Z,18.31
2022-08-10T07:34:12.922Z,18.27
2022-08-10T07:40:02.304Z,18.49
2022-08-10T07:44:54.835Z,18.85
2022-08-10T07:50:02.734Z,20.64
2022-08-10T07:55:07.981Z,22.57
2022-08-10T08:00:11.805Z,20.90
2022-08-10T08:05:29.886Z,19.96
2022-08-10T08:10:38.085Z,19.54
2022-08-10T08:16:17.498Z,19.46
2022-08-10T08:24:01.803Z,19.53
2022-08-10T08:26:29.469Z,19.64
2022-08-10T08:31:32.671Z,19.78
2022-08-10T08:36:39.312Z,19.88
2022-08-10T08:42:23.159Z,20.04
2022-08-10T08:48:05.689Z,20.04
2022-08-10T08:54:02.781Z,20.23
2022-08-10T08:59:06.639Z,20.53
2022-08-10T09:04:19.909Z,20.77
2022-08-10T09:09:44.342Z,20.76
2022-08-10T09:14:51.889Z,20.94
2022-08-10T09:20:28.841Z,21.01
2022-08-10T09:25:45.105Z,21.10
2022-08-10T09:31:21.069Z,21.28
2022-08-10T09:36:38.056Z,22.12
2022-08-10T09:42:02.664Z,23.18
2022-08-10T09:47:12.068Z,23.01
2022-08-10T09:52:59.221Z,23.77
2022-08-10T09:58:01.451Z,24.46
2022-08-10T10:03:06.440Z,26.94
2022-08-10T10:08:13.800Z,28.36
2022-08-10T10:13:41.662Z,29.21
2022-08-10T10:19:10.187Z,29.89
2022-08-10T10:24:39.385Z,29.60
2022-08-10T10:29:58.686Z,30.21
2022-08-10T10:35:23.562Z,30.24
2022-08-10T10:40:32.605Z,30.70
2022-08-10T10:45:51.307Z,30.78
2022-08-10T10:51:16.369Z,30.66
2022-08-10T10:56:36.286Z,30.30
2022-08-10T11:02:02.688Z,30.20
2022-08-10T11:07:21.930Z,30.46
2022-08-10T11:12:50.924Z,30.72
2022-08-10T11:17:59.187Z,30.74
2022-08-10T11:23:28.071Z,31.14
2022-08-10T11:28:50.447Z,31.25
2022-08-10T11:34:11.226Z,30.39
2022-08-10T11:39:25.003Z,30.39
2022-08-10T11:44:27.041Z,30.86
2022-08-10T11:49:59.824Z,31.31
2022-08-10T11:55:12.334Z,30.74
2022-08-10T12:00:15.071Z,30.82
2022-08-10T12:05:54.542Z,31.31
2022-08-10T12:10:58.124Z,31.88
2022-08-10T12:16:07.858Z,31.75
2022-08-10T12:21:21.761Z,31.84
2022-08-10T12:26:33.253Z,32.12
2022-08-10T12:32:11.958Z,32.20
2022-08-10T12:37:31.671Z,32.44
2022-08-10T12:43:02.570Z,32.50
2022-08-10T12:48:31.111Z,32.38
2022-08-10T12:53:38.971Z,32.03
2022-08-10T12:58:57.694Z,32.21
2022-08-10T13:04:23.064Z,32.51
2022-08-10T13:09:26.797Z,32.37
2022-08-10T13:14:32.972Z,32.26
2022-08-10T13:19:55.304Z,32.23
2022-08-10T13:25:03.301Z,31.74
2022-08-10T13:30:07.117Z,31.82
2022-08-10T13:35:17.516Z,31.75
2022-08-10T13:40:21.158Z,31.86
2022-08-10T13:45:25.925Z,32.03
2022-08-10T13:50:33.449Z,31.87
2022-08-10T13:55:46.056Z,31.79
2022-08-10T14:00:59.935Z,31.64
2022-08-10T14:06:04.390Z,31.66
2022-08-10T14:11:14.817Z,31.74
2022-08-10T14:16:18.540Z,31.31
2022-08-10T14:21:21.036Z,31.39
2022-08-10T14:26:31.218Z,31.06
2022-08-10T14:31:36.316Z,30.88
2022-08-10T14:37:02.000Z,30.67
2022-08-10T14:42:20.240Z,30.60
2022-08-10T14:48:01.963Z,30.08
2022-08-10T14:52:52.974Z,29.97
2022-08-10T14:58:19.895Z,29.77
2022-08-10T15:04:01.711Z,29.45
2022-08-10T15:08:42.532Z,29.43
2022-08-10T15:14:34.018Z,29.33
2022-08-10T15:20:01.697Z,29.31
2022-08-10T15:24:56.875Z,29.34
2022-08-10T15:29:59.716Z,29.17
2022-08-10T15:35:25.482Z,29.15
2022-08-10T15:40:37.344Z,28.75
2022-08-10T15:45:55.761Z,28.54
2022-08-10T15:51:05.976Z,28.52
2022-08-10T15:56:29.183Z,28.35
2022-08-10T16:02:12.814Z,28.27
2022-08-10T16:07:16.464Z,27.93
2022-08-10T16:12:32.433Z,28.15
2022-08-10T16:17:54.950Z,28.06
2022-08-10T16:23:00.666Z,27.69
2022-08-10T16:28:08.289Z,27.18
2022-08-10T16:33:15.656Z,27.03
2022-08-10T16:38:22.071Z,26.83
2022-08-10T16:43:24.612Z,26.81
2022-08-10T16:48:50.001Z,26.55
2022-08-10T16:53:54.040Z,26.44
2022-08-10T16:58:57.405Z,26.27
2022-08-10T17:04:09.658Z,26.15
2022-08-10T17:09:18.334Z,25.92
2022-08-10T17:14:25.138Z,25.94
2022-08-10T17:19:28.481Z,25.63
2022-08-10T17:24:32.905Z,25.57
2022-08-10T17:29:57.586Z,25.51
2022-08-10T17:35:03.647Z,25.35
2022-08-10T17:40:09.805Z,25.21
2022-08-10T17:45:48.284Z,25.11
2022-08-10T17:50:51.207Z,24.95
2022-08-10T17:55:57.663Z,24.87
2022-08-10T18:01:38.481Z,24.67
2022-08-10T18:06:25.544Z,24.51
2022-08-10T18:11:34.055Z,24.31
2022-08-10T18:16:41.576Z,24.18
2022-08-10T18:21:47.430Z,24.07
2022-08-10T18:26:55.373Z,23.84
2022-08-10T18:31:59.913Z,23.71
2022-08-10T18:37:05.216Z,23.44
2022-08-10T18:42:12.341Z,23.18
2022-08-10T18:47:19.800Z,22.98
2022-08-10T18:52:25.046Z,22.78
2022-08-10T18:57:54.173Z,22.58
2022-08-10T19:03:17.138Z,22.36
2022-08-10T19:08:37.028Z,22.13
2022-08-10T19:14:16.196Z,21.90
2022-08-10T19:19:42.228Z,21.68
2022-08-10T19:26:40.792Z,21.41
2022-08-10T19:31:12.211Z,21.18
2022-08-10T19:36:35.615Z,20.99
2022-08-10T19:41:44.962Z,20.81
2022-08-10T19:47:06.963Z,20.69
2022-08-10T19:52:46.545Z,20.56
2022-08-10T19:58:04.747Z,20.40
2022-08-10T20:03:10.746Z,20.29
2022-08-10T20:08:20.878Z,20.18
2022-08-10T20:13:37.259Z,20.03
2022-08-10T20:18:47.673Z,19.94
2022-08-10T20:23:53.918Z,19.85
2022-08-10T20:29:16.494Z,19.75
2022-08-10T20:34:50.065Z,19.63
2022-08-10T20:39:59.180Z,19.55
2022-08-10T20:45:25.505Z,19.45
2022-08-10T20:50:55.997Z,19.33
2022-08-10T20:55:57.569Z,19.22
2022-08-10T21:01:19.190Z,19.10
2022-08-10T21:06:42.682Z,18.96
2022-08-10T21:12:16.704Z,18.86
2022-08-10T21:17:27.702Z,18.74
2022-08-10T21:22:44.990Z,18.63
2022-08-10T21:28:04.648Z,18.52
2022-08-10T21:33:16.687Z,18.42
2022-08-10T21:38:33.667Z,18.30
2022-08-10T21:44:25.291Z,18.15
2022-08-10T21:50:07.480Z,18.05
2022-08-10T21:55:56.011Z,17.92
2022-08-10T22:01:31.862Z,17.90
2022-08-10T22:07:01.263Z,17.77
2022-08-10T22:12:32.158Z,17.75
2022-08-10T22:18:00.990Z,17.66
2022-08-10T22:24:16.837Z,17.61
2022-08-10T22:29:50.757Z,17.49
2022-08-10T22:35:29.281Z,17.42
2022-08-10T22:40:49.730Z,17.31
2022-08-10T22:46:15.955Z,17.23
2022-08-10T22:51:22.931Z,17.14
2022-08-10T22:56:43.239Z,17.12
2022-08-10T23:02:08.441Z,17.09
2022-08-10T23:07:19.099Z,16.98
2022-08-10T23:12:25.396Z,16.88
2022-08-10T23:18:00.567Z,16.69
2022-08-10T23:23:09.692Z,16.69
2022-08-10T23:28:13.413Z,16.64
2022-08-10T23:33:37.732Z,16.45
2022-08-10T23:38:41.985Z,16.45
2022-08-10T23:44:03.301Z,16.37
2022-08-10T23:49:07.709Z,16.34
2022-08-10T23:54:15.080Z,16.22
2022-08-10T23:59:20.883Z,16.17
